Time;durP1;ratioP1;P1;durP2;ratioP2;P2;SDS_P1;SDS_P2;PMS_P1;PMS_P2;Temp;Humidity;BMP_temperature;BMP_pressure;BME280_temperature;BME280_humidity;BME280_pressure;Samples;Min_cycle;Max_cycle;Signal;HPM_P1;HPM_P2
2023/01/01 00:00:04;;;;;;;13.98;10.25;;;;;;;;;;5049655;28;20481;-75
2023/01/01 00:02:30;;;;;;;14.68;9.07;;;;;;;;;;5060544;28;20033;-76
2023/01/01 00:04:56;;;;;;;13.70;9.77;;;;;;;;;;5043555;28;20480;-75
2023/01/01 00:07:22;;;;;;;13.82;9.88;;;;;;;;;;5046693;28;20025;-75
2023/01/01 00:12:33;;;;;;;7.30;4.90;;;;;;;;;;5040137;28;20105;-76
2023/01/01 00:14:59;;;;;;;4.93;3.53;;;;;;;;;;5043636;28;20025;-75
2023/01/01 00:17:25;;;;;;;8.95;4.72;;;;;;;;;;5050525;28;20044;-75
2023/01/01 00:19:51;;;;;;;5.93;3.30;;;;;;;;;;5039944;28;20029;-75
2023/01/01 00:22:18;;;;;;;5.43;3.03;;;;;;;;;;5044703;28;20416;-75
2023/01/01 00:24:44;;;;;;;5.70;2.58;;;;;;;;;;5046910;28;20017;-74
2023/01/01 00:27:10;;;;;;;3.78;2.83;;;;;;;;;;5045033;28;20388;-76
2023/01/01 00:29:36;;;;;;;6.78;4.10;;;;;;;;;;5042285;28;20025;-75
2023/01/01 00:32:02;;;;;;;8.48;5.22;;;;;;;;;;5046497;28;20116;-75
2023/01/01 00:34:28;;;;;;;5.03;3.58;;;;;;;;;;5040815;28;20025;-75
2023/01/01 00:36:54;;;;;;;5.10;3.67;;;;;;;;;;5045533;28;20087;-76
2023/01/01 00:39:20;;;;;;;4.65;3.42;;;;;;;;;;5045243;28;20036;-75
2023/01/01 00:41:46;;;;;;;6.65;4.65;;;;;;;;;;5046724;28;20110;-76
2023/01/01 00:44:12;;;;;;;4.72;4.32;;;;;;;;;;5048243;28;20040;-75
2023/01/01 00:46:38;;;;;;;5.22;4.57;;;;;;;;;;5046186;28;20379;-75
2023/01/01 00:49:04;;;;;;;4.20;3.75;;;;;;;;;;5049537;28;20033;-75
2023/01/01 00:51:30;;;;;;;6.10;5.00;;;;;;;;;;5044419;28;20036;-76
2023/01/01 00:53:57;;;;;;;4.30;3.65;;;;;;;;;;5039680;28;20055;-76
2023/01/01 00:56:23;;;;;;;4.72;3.63;;;;;;;;;;5041217;28;20026;-75
2023/01/01 00:58:49;;;;;;;5.25;3.75;;;;;;;;;;5048064;28;20056;-75
2023/01/01 01:01:15;;;;;;;3.08;2.60;;;;;;;;;;5049688;28;20041;-75
2023/01/01 01:03:41;;;;;;;3.97;3.00;;;;;;;;;;5042162;28;20025;-76
2023/01/01 01:06:09;;;;;;;3.15;2.85;;;;;;;;;;5048431;28;20025;-75
2023/01/01 01:08:36;;;;;;;4.28;2.60;;;;;;;;;;5047124;28;20447;-75
2023/01/01 01:11:07;;;;;;;3.03;2.40;;;;;;;;;;5052120;28;20033;-75
2023/01/01 01:13:33;;;;;;;2.65;2.42;;;;;;;;;;5050624;28;20056;-75
2023/01/01 01:15:59;;;;;;;2.85;2.45;;;;;;;;;;5049748;28;20033;-75
2023/01/01 01:18:25;;;;;;;3.95;2.33;;;;;;;;;;5048438;28;20059;-75
2023/01/01 01:20:52;;;;;;;2.75;1.90;;;;;;;;;;5041779;28;20079;-76
2023/01/01 01:23:19;;;;;;;1.70;1.60;;;;;;;;;;5050697;28;20028;-75
2023/01/01 01:25:45;;;;;;;1.75;1.65;;;;;;;;;;5042838;28;20036;-76
2023/01/01 01:28:11;;;;;;;2.97;1.83;;;;;;;;;;5044569;28;20029;-75
2023/01/01 01:30:38;;;;;;;1.73;1.63;;;;;;;;;;5051732;28;20047;-75
2023/01/01 01:33:04;;;;;;;1.75;1.60;;;;;;;;;;5042760;28;20445;-75
2023/01/01 01:35:31;;;;;;;1.77;1.55;;;;;;;;;;5062077;28;20029;-75
2023/01/01 01:37:58;;;;;;;1.75;1.60;;;;;;;;;;5045495;28;20397;-76
2023/01/01 01:40:24;;;;;;;1.73;1.30;;;;;;;;;;5044392;28;20057;-75
2023/01/01 01:42:50;;;;;;;1.63;1.50;;;;;;;;;;5046867;28;20048;-75
2023/01/01 01:45:16;;;;;;;3.15;1.80;;;;;;;;;;5049299;28;20159;-75
2023/01/01 01:47:49;;;;;;;3.30;2.30;;;;;;;;;;5051087;28;20029;-76
2023/01/01 01:50:22;;;;;;;2.70;2.10;;;;;;;;;;5043805;28;20029;-75
2023/01/01 01:53:08;;;;;;;2.10;1.70;;;;;;;;;;5048373;28;20535;-75
2023/01/01 01:55:36;;;;;;;3.25;2.58;;;;;;;;;;5051188;28;20021;-75
2023/01/01 01:58:03;;;;;;;2.22;1.88;;;;;;;;;;5050478;28;20661;-75
2023/01/01 02:00:29;;;;;;;2.42;1.90;;;;;;;;;;5050619;28;20036;-75
2023/01/01 02:03:06;;;;;;;2.40;2.17;;;;;;;;;;5047279;28;20056;-75
2023/01/01 02:05:33;;;;;;;2.20;1.95;;;;;;;;;;5045770;28;20150;-75
2023/01/01 02:08:00;;;;;;;2.00;1.70;;;;;;;;;;5041188;28;20084;-75
2023/01/01 02:10:27;;;;;;;3.47;2.42;;;;;;;;;;5043535;28;20469;-75
2023/01/01 02:12:53;;;;;;;5.50;2.90;;;;;;;;;;5047567;28;20025;-75
2023/01/01 02:15:20;;;;;;;4.15;2.30;;;;;;;;;;5050528;28;20067;-75
2023/01/01 02:18:07;;;;;;;4.85;3.38;;;;;;;;;;5049761;28;20040;-75
2023/01/01 02:20:33;;;;;;;6.22;3.85;;;;;;;;;;5046086;28;20032;-75
2023/01/01 02:23:05;;;;;;;2.95;2.55;;;;;;;;;;5048004;28;20025;-75
2023/01/01 02:25:54;;;;;;;3.53;2.80;;;;;;;;;;5046891;28;20363;-75
2023/01/01 02:28:38;;;;;;;3.42;2.30;;;;;;;;;;5044311;28;20065;-75
2023/01/01 02:31:05;;;;;;;2.38;1.95;;;;;;;;;;5048714;28;20114;-75
2023/01/01 02:33:32;;;;;;;2.15;1.95;;;;;;;;;;5042779;28;20428;-76
2023/01/01 02:35:59;;;;;;;4.82;2.35;;;;;;;;;;5051080;28;20124;-75
2023/01/01 02:38:28;;;;;;;2.35;1.98;;;;;;;;;;5044399;28;20049;-75
2023/01/01 02:40:59;;;;;;;2.55;1.80;;;;;;;;;;5045120;28;20029;-75
2023/01/01 02:43:25;;;;;;;3.20;1.88;;;;;;;;;;5048386;28;20053;-75
2023/01/01 02:45:52;;;;;;;3.13;1.80;;;;;;;;;;5048395;28;20398;-76
2023/01/01 02:48:36;;;;;;;3.70;2.25;;;;;;;;;;5048741;28;20097;-75
2023/01/01 02:51:04;;;;;;;1.75;1.65;;;;;;;;;;5050873;28;20064;-75
2023/01/01 02:53:33;;;;;;;3.00;2.15;;;;;;;;;;5047896;28;20032;-76
2023/01/01 02:56:07;;;;;;;3.55;1.85;;;;;;;;;;5040745;28;20533;-75
2023/01/01 03:01:35;;;;;;;4.78;2.47;;;;;;;;;;5046608;28;20556;-75
2023/01/01 03:04:13;;;;;;;3.10;2.10;;;;;;;;;;5045241;28;20697;-75
2023/01/01 03:06:42;;;;;;;3.92;1.98;;;;;;;;;;5048645;28;20033;-75
2023/01/01 03:09:27;;;;;;;2.20;1.90;;;;;;;;;;5049655;28;20373;-75
2023/01/01 03:12:00;;;;;;;2.70;1.92;;;;;;;;;;5044622;28;20358;-76
2023/01/01 03:14:49;;;;;;;4.57;2.50;;;;;;;;;;5045739;28;20390;-75
2023/01/01 03:17:26;;;;;;;5.38;2.45;;;;;;;;;;5048664;28;20116;-76
2023/01/01 03:19:53;;;;;;;3.05;2.20;;;;;;;;;;5041028;28;20107;-76
2023/01/01 03:22:20;;;;;;;3.00;2.10;;;;;;;;;;5045549;28;20078;-75
2023/01/01 03:25:01;;;;;;;2.10;1.90;;;;;;;;;;5045714;28;20025;-75
2023/01/01 03:27:42;;;;;;;2.08;1.88;;;;;;;;;;5046851;28;20485;-75
2023/01/01 03:30:09;;;;;;;2.20;2.00;;;;;;;;;;5049070;28;20029;-75
2023/01/01 03:33:02;;;;;;;1.90;1.80;;;;;;;;;;5042199;28;20021;-75
2023/01/01 03:35:46;;;;;;;4.13;2.03;;;;;;;;;;5050162;28;20066;-76
2023/01/01 03:38:24;;;;;;;2.40;1.95;;;;;;;;;;5034828;28;20029;-75
2023/01/01 03:40:53;;;;;;;4.00;2.30;;;;;;;;;;5054890;28;20083;-75
2023/01/01 03:43:34;;;;;;;3.90;2.40;;;;;;;;;;5046906;28;20035;-75
2023/01/01 03:46:01;;;;;;;3.60;2.50;;;;;;;;;;5043835;28;20539;-75
2023/01/01 03:48:27;;;;;;;3.88;2.45;;;;;;;;;;5045332;28;20070;-75
2023/01/01 03:51:08;;;;;;;2.25;2.05;;;;;;;;;;5043333;28;20088;-75
2023/01/01 03:53:43;;;;;;;2.50;2.03;;;;;;;;;;5059392;28;20074;-75
2023/01/01 03:56:19;;;;;;;2.97;2.28;;;;;;;;;;5047760;28;20021;-76
2023/01/01 03:58:45;;;;;;;;;;;;;;;;;;5045453;28;20385;-75
2023/01/01 04:01:18;;;;;;;5.35;2.38;;;;;;;;;;5050376;28;19908;-75
2023/01/01 04:03:44;;;;;;;3.75;2.30;;;;;;;;;;5037736;28;20029;-75
2023/01/01 04:06:11;;;;;;;3.08;2.40;;;;;;;;;;5049715;28;20075;-75
2023/01/01 04:08:37;;;;;;;2.50;2.20;;;;;;;;;;5045927;28;20100;-75
2023/01/01 04:12:00;;;;;;;3.10;1.85;;;;;;;;;;5050225;28;20021;-75
2023/01/01 04:13:51;;;;;;;2.42;2.00;;;;;;;;;;5045357;28;20643;-74
2023/01/01 04:16:17;;;;;;;2.03;1.80;;;;;;;;;;5058628;28;20035;-75
2023/01/01 04:18:43;;;;;;;2.20;2.00;;;;;;;;;;5042627;28;20494;-76
2023/01/01 04:21:11;;;;;;;3.20;2.25;;;;;;;;;;5049309;28;20036;-75
2023/01/01 04:23:37;;;;;;;2.22;1.90;;;;;;;;;;5048101;28;20348;-75
2023/01/01 04:26:03;;;;;;;5.05;2.22;;;;;;;;;;5046705;28;20420;-75
2023/01/01 04:28:29;;;;;;;2.53;2.05;;;;;;;;;;5047975;28;20025;-75
2023/01/01 04:30:55;;;;;;;2.55;2.00;;;;;;;;;;5046384;28;20033;-75
2023/01/01 04:33:21;;;;;;;3.20;2.08;;;;;;;;;;5048101;28;20033;-75
2023/01/01 04:35:47;;;;;;;2.33;2.00;;;;;;;;;;5045395;28;20045;-76
2023/01/01 04:38:14;;;;;;;3.17;1.90;;;;;;;;;;5043259;28;20029;-75
2023/01/01 04:40:40;;;;;;;2.63;2.20;;;;;;;;;;5047933;28;20037;-75
2023/01/01 04:43:06;;;;;;;4.22;2.10;;;;;;;;;;5043366;28;20036;-75
2023/01/01 04:45:32;;;;;;;2.75;2.10;;;;;;;;;;5048652;28;20037;-76
2023/01/01 04:48:03;;;;;;;2.47;1.90;;;;;;;;;;5049217;28;20091;-75
2023/01/01 04:50:29;;;;;;;3.58;1.90;;;;;;;;;;5051097;28;20532;-75
2023/01/01 04:52:57;;;;;;;2.92;2.30;;;;;;;;;;5044302;28;20033;-75
2023/01/01 04:55:24;;;;;;;2.90;2.00;;;;;;;;;;5037486;28;20772;-75
2023/01/01 04:57:50;;;;;;;4.30;2.30;;;;;;;;;;5048458;28;20025;-75
2023/01/01 05:00:16;;;;;;;2.25;2.05;;;;;;;;;;5050063;28;20029;-75
2023/01/01 05:02:42;;;;;;;2.35;1.95;;;;;;;;;;5041668;28;20033;-75
2023/01/01 05:05:08;;;;;;;3.15;2.20;;;;;;;;;;5050980;28;20494;-75
2023/01/01 05:07:34;;;;;;;2.30;2.10;;;;;;;;;;5052490;28;20029;-75
2023/01/01 05:10:00;;;;;;;3.80;2.00;;;;;;;;;;5049581;28;20032;-75
2023/01/01 05:12:29;;;;;;;2.15;1.95;;;;;;;;;;5045125;28;20371;-75
2023/01/01 05:14:55;;;;;;;2.97;2.30;;;;;;;;;;5065909;28;20119;-75
2023/01/01 05:17:21;;;;;;;1.70;1.60;;;;;;;;;;5048224;28;20029;-75
2023/01/01 05:19:47;;;;;;;2.75;1.83;;;;;;;;;;5061339;28;20527;-75
2023/01/01 05:22:13;;;;;;;2.83;2.10;;;;;;;;;;5050672;28;20374;-75
2023/01/01 05:24:39;;;;;;;2.58;1.80;;;;;;;;;;5049654;28;20017;-76
2023/01/01 05:27:05;;;;;;;2.65;2.05;;;;;;;;;;5048065;28;20095;-75
2023/01/01 05:29:31;;;;;;;3.22;1.90;;;;;;;;;;5052326;28;20055;-75
2023/01/01 05:31:57;;;;;;;2.30;2.00;;;;;;;;;;5052989;28;20029;-75
2023/01/01 05:34:24;;;;;;;2.55;2.20;;;;;;;;;;5047751;28;20024;-75
2023/01/01 05:36:50;;;;;;;3.67;2.00;;;;;;;;;;5053144;28;20746;-74
2023/01/01 05:39:16;;;;;;;3.00;1.90;;;;;;;;;;5052076;28;20025;-75
2023/01/01 05:41:42;;;;;;;2.13;1.80;;;;;;;;;;5048813;28;20539;-75
2023/01/01 05:44:09;;;;;;;2.42;1.95;;;;;;;;;;5046380;28;20032;-75
2023/01/01 05:46:35;;;;;;;2.65;2.08;;;;;;;;;;5046515;28;20040;-75
2023/01/01 05:49:01;;;;;;;6.55;2.00;;;;;;;;;;5048391;28;20032;-76
2023/01/01 05:51:28;;;;;;;7.20;2.15;;;;;;;;;;5045530;28;20076;-75
2023/01/01 05:53:55;;;;;;;2.67;1.73;;;;;;;;;;5045718;28;20070;-75
2023/01/01 05:56:21;;;;;;;2.38;2.08;;;;;;;;;;5050411;28;20029;-76
2023/01/01 05:58:47;;;;;;;4.60;2.40;;;;;;;;;;5042663;28;20024;-74
2023/01/01 06:01:13;;;;;;;3.38;1.92;;;;;;;;;;5045162;28;20040;-76
2023/01/01 06:03:40;;;;;;;2.92;1.63;;;;;;;;;;5048495;28;20083;-76
2023/01/01 06:06:13;;;;;;;3.95;2.55;;;;;;;;;;5058582;28;20082;-75
2023/01/01 06:08:40;;;;;;;2.33;1.65;;;;;;;;;;5043539;28;20025;-75
2023/01/01 06:11:07;;;;;;;5.38;2.00;;;;;;;;;;5044553;28;20051;-75
2023/01/01 06:13:33;;;;;;;5.30;2.35;;;;;;;;;;5049445;28;20036;-75
2023/01/01 06:16:00;;;;;;;4.63;1.80;;;;;;;;;;5046388;28;20098;-75
2023/01/01 06:18:28;;;;;;;2.20;1.80;;;;;;;;;;5046762;28;20102;-75
2023/01/01 06:20:54;;;;;;;4.75;2.28;;;;;;;;;;5045350;28;20180;-75
2023/01/01 06:23:20;;;;;;;2.53;2.10;;;;;;;;;;5049848;28;20024;-76
2023/01/01 06:25:47;;;;;;;3.35;2.42;;;;;;;;;;5045288;28;20032;-76
2023/01/01 06:28:13;;;;;;;3.70;2.20;;;;;;;;;;5044676;28;20033;-75
2023/01/01 06:30:39;;;;;;;3.38;2.13;;;;;;;;;;5050321;28;20024;-75
2023/01/01 06:33:05;;;;;;;4.60;1.90;;;;;;;;;;5048717;28;20028;-76
2023/01/01 06:35:31;;;;;;;5.40;2.10;;;;;;;;;;5047011;28;20056;-75
2023/01/01 06:38:02;;;;;;;11.40;2.72;;;;;;;;;;5046997;28;20525;-76
2023/01/01 06:40:28;;;;;;;4.65;2.00;;;;;;;;;;5047464;28;20033;-75
2023/01/01 06:42:54;;;;;;;4.00;1.80;;;;;;;;;;5040285;28;20017;-75
2023/01/01 06:45:20;;;;;;;2.63;2.42;;;;;;;;;;5046235;28;20120;-76
2023/01/01 06:47:46;;;;;;;3.47;1.85;;;;;;;;;;5044582;28;20033;-75
2023/01/01 06:50:12;;;;;;;2.22;2.03;;;;;;;;;;5047807;28;20037;-75
2023/01/01 06:52:39;;;;;;;3.30;1.65;;;;;;;;;;5042396;28;20050;-74
2023/01/01 06:55:05;;;;;;;3.10;1.90;;;;;;;;;;5045327;28;20040;-74
2023/01/01 06:57:33;;;;;;;3.30;1.80;;;;;;;;;;5043553;28;20032;-76
2023/01/01 06:59:59;;;;;;;3.47;2.00;;;;;;;;;;5047532;28;20087;-76
2023/01/01 07:02:25;;;;;;;5.10;1.83;;;;;;;;;;5045446;28;20036;-75
2023/01/01 07:04:51;;;;;;;4.07;1.90;;;;;;;;;;5047305;28;20025;-75
2023/01/01 07:07:17;;;;;;;5.25;1.90;;;;;;;;;;5041102;28;20025;-75
2023/01/01 07:09:43;;;;;;;6.10;2.13;;;;;;;;;;5044618;28;20509;-77
2023/01/01 07:12:09;;;;;;;3.38;1.90;;;;;;;;;;5043479;28;20049;-76
2023/01/01 07:14:36;;;;;;;3.50;1.85;;;;;;;;;;5045465;28;20033;-76
2023/01/01 07:17:02;;;;;;;8.63;2.00;;;;;;;;;;5039879;28;20102;-76
2023/01/01 07:19:28;;;;;;;6.25;2.20;;;;;;;;;;5040685;28;20037;-77
2023/01/01 07:21:55;;;;;;;5.35;2.38;;;;;;;;;;5030535;28;20025;-74
2023/01/01 07:24:21;;;;;;;2.85;2.17;;;;;;;;;;5049975;28;20124;-75
2023/01/01 07:26:48;;;;;;;1.92;1.70;;;;;;;;;;5045260;28;20089;-75
2023/01/01 07:29:14;;;;;;;4.82;2.25;;;;;;;;;;5034276;28;20032;-75
2023/01/01 07:31:41;;;;;;;3.65;2.00;;;;;;;;;;5042630;28;20021;-77
2023/01/01 07:34:09;;;;;;;4.50;2.13;;;;;;;;;;5032028;28;20379;-75
2023/01/01 07:36:35;;;;;;;4.90;3.15;;;;;;;;;;5043487;28;20053;-75
2023/01/01 07:39:01;;;;;;;6.00;3.53;;;;;;;;;;5037656;28;20423;-75
2023/01/01 07:41:27;;;;;;;2.80;2.22;;;;;;;;;;5041015;28;20063;-75
2023/01/01 07:43:53;;;;;;;2.05;1.70;;;;;;;;;;5043889;28;20032;-75
2023/01/01 07:46:19;;;;;;;4.30;2.08;;;;;;;;;;5042979;28;20115;-75
2023/01/01 07:48:45;;;;;;;2.17;1.60;;;;;;;;;;5047535;28;20170;-75
2023/01/01 07:51:11;;;;;;;2.08;1.52;;;;;;;;;;5045639;28;20025;-76
2023/01/01 07:53:38;;;;;;;3.50;1.75;;;;;;;;;;5051035;28;20108;-77
2023/01/01 07:56:04;;;;;;;5.38;2.25;;;;;;;;;;5043665;28;20060;-77
2023/01/01 07:58:30;;;;;;;3.88;1.75;;;;;;;;;;5040637;28;20030;-77
2023/01/01 08:00:56;;;;;;;1.90;1.63;;;;;;;;;;5045279;28;20159;-75
2023/01/01 08:03:22;;;;;;;3.75;1.50;;;;;;;;;;5046772;28;20036;-77
2023/01/01 08:05:48;;;;;;;4.93;1.70;;;;;;;;;;5033979;28;20063;-75
2023/01/01 08:08:14;;;;;;;4.10;1.75;;;;;;;;;;5033668;28;20051;-75
2023/01/01 08:10:40;;;;;;;1.90;1.80;;;;;;;;;;5035971;28;20505;-76
2023/01/01 08:13:07;;;;;;;1.83;1.73;;;;;;;;;;5041293;28;20190;-75
2023/01/01 08:15:34;;;;;;;5.40;2.25;;;;;;;;;;5045931;28;20405;-75
2023/01/01 08:18:01;;;;;;;2.75;1.70;;;;;;;;;;5039794;28;20049;-75
2023/01/01 08:20:28;;;;;;;4.38;2.22;;;;;;;;;;5041125;28;20039;-75
2023/01/01 08:22:54;;;;;;;4.55;2.10;;;;;;;;;;5047423;28;20029;-75
2023/01/01 08:25:20;;;;;;;6.82;3.55;;;;;;;;;;5045588;28;20033;-76
2023/01/01 08:27:47;;;;;;;7.60;4.70;;;;;;;;;;5047118;28;20374;-75
2023/01/01 08:30:14;;;;;;;5.72;3.50;;;;;;;;;;5044457;28;20043;-75
2023/01/01 08:32:40;;;;;;;4.68;3.13;;;;;;;;;;5043180;28;20344;-76
2023/01/01 08:35:06;;;;;;;5.93;2.83;;;;;;;;;;5042257;28;20106;-76
2023/01/01 08:37:32;;;;;;;3.92;2.60;;;;;;;;;;5041893;28;20406;-75
2023/01/01 08:39:58;;;;;;;3.65;2.92;;;;;;;;;;5044845;28;20033;-75
2023/01/01 08:42:24;;;;;;;3.75;2.20;;;;;;;;;;5043808;28;20030;-76
2023/01/01 08:44:50;;;;;;;3.42;1.92;;;;;;;;;;5044261;28;20025;-76
2023/01/01 08:47:24;;;;;;;3.50;1.88;;;;;;;;;;5048360;28;20037;-75
2023/01/01 08:49:50;;;;;;;4.63;2.20;;;;;;;;;;5047807;28;20111;-75
2023/01/01 08:52:16;;;;;;;4.75;2.90;;;;;;;;;;5051078;28;20053;-76
2023/01/01 08:54:42;;;;;;;3.63;2.20;;;;;;;;;;5044610;28;20053;-76
2023/01/01 08:57:09;;;;;;;3.70;2.40;;;;;;;;;;5048604;28;20040;-75
2023/01/01 08:59:35;;;;;;;4.82;2.90;;;;;;;;;;5048706;28;20032;-75
2023/01/01 09:02:01;;;;;;;5.43;3.50;;;;;;;;;;5046304;28;20401;-76
2023/01/01 09:04:27;;;;;;;3.50;2.50;;;;;;;;;;5044640;28;20036;-76
2023/01/01 09:06:53;;;;;;;5.07;2.22;;;;;;;;;;5042653;28;20029;-76
2023/01/01 09:09:19;;;;;;;3.05;1.52;;;;;;;;;;5048774;28;20033;-75
2023/01/01 09:11:52;;;;;;;4.57;2.08;;;;;;;;;;5046971;28;20443;-74
2023/01/01 09:14:19;;;;;;;4.07;1.90;;;;;;;;;;5047766;28;20040;-76
2023/01/01 09:16:45;;;;;;;4.13;1.90;;;;;;;;;;5051584;28;20040;-75
2023/01/01 09:19:11;;;;;;;5.88;2.08;;;;;;;;;;5058391;28;20032;-75
2023/01/01 09:21:37;;;;;;;4.97;1.90;;;;;;;;;;5045140;28;20032;-80
2023/01/01 09:24:04;;;;;;;2.60;2.00;;;;;;;;;;5037692;28;20382;-76
2023/01/01 09:26:30;;;;;;;2.85;1.90;;;;;;;;;;5040284;28;20123;-76
2023/01/01 09:28:57;;;;;;;5.07;2.13;;;;;;;;;;5043167;28;20438;-76
2023/01/01 09:31:23;;;;;;;4.28;2.03;;;;;;;;;;5045532;28;20029;-76
2023/01/01 09:33:49;;;;;;;3.10;2.10;;;;;;;;;;5044153;28;20082;-77
2023/01/01 09:36:18;;;;;;;3.13;2.30;;;;;;;;;;5039625;28;20481;-77
2023/01/01 09:38:51;;;;;;;4.68;2.35;;;;;;;;;;5047061;28;20044;-76
2023/01/01 09:41:37;;;;;;;4.95;2.13;;;;;;;;;;5044631;28;20347;-75
2023/01/01 09:44:06;;;;;;;2.97;2.10;;;;;;;;;;5031288;28;20513;-76
2023/01/01 09:46:35;;;;;;;3.40;2.70;;;;;;;;;;5052244;28;20033;-74
2023/01/01 09:49:05;;;;;;;5.70;2.92;;;;;;;;;;5041677;28;20431;-76
2023/01/01 09:51:33;;;;;;;4.80;2.60;;;;;;;;;;5046127;28;20071;-75
2023/01/01 09:54:20;;;;;;;5.82;3.22;;;;;;;;;;5041348;28;20034;-76
2023/01/01 09:56:46;;;;;;;6.97;3.00;;;;;;;;;;5040921;28;20046;-75
2023/01/01 09:59:12;;;;;;;5.55;2.75;;;;;;;;;;5038999;28;20986;-75
2023/01/01 10:01:50;;;;;;;7.03;3.25;;;;;;;;;;5038032;28;20029;-76
2023/01/01 10:04:32;;;;;;;4.97;3.00;;;;;;;;;;5040907;28;20044;-76
2023/01/01 10:07:16;;;;;;;7.88;2.88;;;;;;;;;;5056221;28;20016;-81
2023/01/01 10:10:02;;;;;;;3.10;2.65;;;;;;;;;;5043445;28;20029;-75
2023/01/01 10:12:28;;;;;;;;;;;;;;;;;;5042082;28;20028;-75
2023/01/01 10:14:58;;;;;;;2.97;2.25;;;;;;;;;;5042262;28;19913;-75
2023/01/01 10:17:29;;;;;;;3.67;2.33;;;;;;;;;;5044075;28;20030;-76
2023/01/01 10:20:01;;;;;;;3.78;2.80;;;;;;;;;;5041659;28;20032;-76
2023/01/01 10:22:32;;;;;;;6.22;4.13;;;;;;;;;;5039630;28;20104;-75
2023/01/01 10:25:06;;;;;;;7.65;5.68;;;;;;;;;;5044126;28;20030;-75
2023/01/01 10:27:40;;;;;;;11.18;7.97;;;;;;;;;;5049579;28;20052;-74
2023/01/01 10:30:14;;;;;;;8.77;5.75;;;;;;;;;;5039908;28;20056;-74
2023/01/01 10:32:42;;;;;;;11.57;8.02;;;;;;;;;;5044015;28;20504;-75
2023/01/01 10:35:18;;;;;;;8.15;5.68;;;;;;;;;;5040242;28;20025;-75
2023/01/01 10:37:45;;;;;;;30.27;21.17;;;;;;;;;;5042642;28;20191;-75
2023/01/01 10:40:19;;;;;;;18.95;11.40;;;;;;;;;;5044767;28;20029;-76
2023/01/01 10:42:47;;;;;;;10.20;8.55;;;;;;;;;;5057183;28;20583;-76
2023/01/01 10:45:14;;;;;;;9.45;8.10;;;;;;;;;;5042282;28;20040;-76
2023/01/01 10:48:00;;;;;;;11.45;7.25;;;;;;;;;;5043697;28;20426;-76
2023/01/01 10:50:26;;;;;;;;;;;;;;;;;;5039412;28;20032;-76
2023/01/01 10:52:52;;;;;;;;;;;;;;;;;;5042716;28;20370;-77
2023/01/01 10:55:22;;;;;;;10.50;8.85;;;;;;;;;;5037987;28;19912;-76
2023/01/01 10:57:48;;;;;;;18.80;14.23;;;;;;;;;;5043406;28;20410;-75
2023/01/01 11:00:18;;;;;;;12.05;8.43;;;;;;;;;;5055201;28;20025;-77
2023/01/01 11:02:44;;;;;;;10.27;8.95;;;;;;;;;;5040725;28;20033;-77
2023/01/01 11:05:15;;;;;;;13.32;10.77;;;;;;;;;;5046595;28;20401;-76
2023/01/01 11:07:43;;;;;;;15.88;11.38;;;;;;;;;;5047177;28;20024;-76
2023/01/01 11:10:19;;;;;;;11.43;7.82;;;;;;;;;;5057965;28;20705;-77
2023/01/01 11:12:46;;;;;;;10.00;6.80;;;;;;;;;;5044458;28;20540;-76
2023/01/01 11:15:41;;;;;;;5.82;4.35;;;;;;;;;;5040298;28;20462;-76
2023/01/01 11:18:21;;;;;;;7.38;5.28;;;;;;;;;;5031508;28;20036;-77
2023/01/01 11:20:55;;;;;;;4.30;3.40;;;;;;;;;;5043726;28;20072;-76
2023/01/01 11:23:28;;;;;;;11.13;4.93;;;;;;;;;;5045291;28;20086;-76
2023/01/01 11:25:58;;;;;;;12.15;7.15;;;;;;;;;;5045266;28;20024;-77
2023/01/01 11:28:25;;;;;;;4.78;3.70;;;;;;;;;;5039116;28;20099;-76
2023/01/01 11:31:09;;;;;;;4.93;3.63;;;;;;;;;;5047110;28;20083;-76
2023/01/01 11:33:54;;;;;;;6.25;4.55;;;;;;;;;;5037137;28;20079;-76
2023/01/01 11:36:22;;;;;;;5.40;3.80;;;;;;;;;;5038664;28;20382;-76
2023/01/01 11:39:03;;;;;;;16.67;8.63;;;;;;;;;;5040448;28;20474;-76
2023/01/01 11:41:39;;;;;;;20.48;10.60;;;;;;;;;;5045278;28;20037;-76
2023/01/01 11:44:05;;;;;;;17.98;10.35;;;;;;;;;;5044210;28;20029;-76
2023/01/01 11:46:32;;;;;;;5.90;3.80;;;;;;;;;;5036623;28;20417;-76
2023/01/01 11:48:58;;;;;;;7.63;4.15;;;;;;;;;;5046175;28;20024;-77
2023/01/01 11:51:28;;;;;;;4.55;2.75;;;;;;;;;;5039936;28;20021;-76
2023/01/01 11:54:07;;;;;;;3.85;3.45;;;;;;;;;;5045987;28;20052;-77
2023/01/01 11:56:34;;;;;;;5.28;4.03;;;;;;;;;;5036783;28;20406;-77
2023/01/01 11:59:03;;;;;;;4.57;3.55;;;;;;;;;;5032372;28;20090;-77
2023/01/01 12:01:38;;;;;;;4.35;3.40;;;;;;;;;;5044153;28;20925;-76
2023/01/01 12:04:08;;;;;;;3.97;2.85;;;;;;;;;;5036022;28;20494;-76
2023/01/01 12:06:34;;;;;;;4.18;3.08;;;;;;;;;;5044739;28;20024;-76
2023/01/01 12:09:12;;;;;;;4.65;3.03;;;;;;;;;;5043628;28;20032;-76
2023/01/01 12:11:45;;;;;;;7.00;3.17;;;;;;;;;;5035695;28;20022;-77
2023/01/01 12:14:30;;;;;;;8.63;4.35;;;;;;;;;;5035857;28;20064;-77
2023/01/01 12:17:18;;;;;;;11.17;6.70;;;;;;;;;;5037063;28;20037;-76
2023/01/01 12:19:56;;;;;;;15.93;6.97;;;;;;;;;;5031224;28;20041;-77
2023/01/01 12:22:22;;;;;;;48.97;24.63;;;;;;;;;;5046433;28;20032;-77
2023/01/01 12:24:49;;;;;;;17.75;15.13;;;;;;;;;;5039584;28;20021;-76
2023/01/01 12:27:15;;;;;;;5.60;4.10;;;;;;;;;;5044682;28;20029;-77
2023/01/01 12:29:50;;;;;;;5.93;4.13;;;;;;;;;;5052391;28;20024;-76
2023/01/01 12:32:32;;;;;;;7.60;4.10;;;;;;;;;;5038868;28;20458;-76
2023/01/01 12:35:13;;;;;;;6.82;3.75;;;;;;;;;;5043208;28;20029;-76
2023/01/01 12:37:46;;;;;;;4.55;3.45;;;;;;;;;;5041240;28;20045;-77
2023/01/01 12:40:15;;;;;;;3.92;2.42;;;;;;;;;;5035198;28;20038;-76
2023/01/01 12:42:54;;;;;;;4.28;2.42;;;;;;;;;;5038997;28;20028;-76
2023/01/01 12:45:32;;;;;;;2.20;1.88;;;;;;;;;;5044010;28;20044;-76
2023/01/01 12:48:07;;;;;;;2.28;1.67;;;;;;;;;;5040288;28;20148;-76
2023/01/01 12:50:36;;;;;;;6.18;2.13;;;;;;;;;;5047999;28;20033;-76
2023/01/01 12:53:21;;;;;;;2.10;1.80;;;;;;;;;;5044678;28;20440;-76
2023/01/01 12:56:06;;;;;;;2.20;1.80;;;;;;;;;;5042953;28;20096;-76
2023/01/01 12:59:08;;;;;;;6.00;4.40;;;;;;;;;;5038956;28;20037;-76
2023/01/01 13:01:35;;;;;;;6.55;3.60;;;;;;;;;;5024025;28;20052;-76
2023/01/01 13:04:06;;;;;;;11.27;7.78;;;;;;;;;;5038352;28;20131;-76
2023/01/01 13:06:39;;;;;;;8.75;5.75;;;;;;;;;;5043984;28;20347;-76
2023/01/01 13:09:17;;;;;;;10.55;7.75;;;;;;;;;;5047553;28;20991;-76
2023/01/01 13:11:44;;;;;;;9.15;5.60;;;;;;;;;;5047045;28;20029;-76
2023/01/01 13:14:11;;;;;;;15.65;10.88;;;;;;;;;;5049704;28;20076;-75
2023/01/01 13:16:47;;;;;;;25.27;15.95;;;;;;;;;;5047823;28;20611;-77
2023/01/01 13:19:33;;;;;;;16.73;11.13;;;;;;;;;;5054320;28;20029;-76
2023/01/01 13:22:00;;;;;;;23.70;13.98;;;;;;;;;;5060891;28;20036;-76
2023/01/01 13:24:27;;;;;;;32.53;19.60;;;;;;;;;;5051122;28;20021;-76
2023/01/01 13:26:53;;;;;;;35.55;18.60;;;;;;;;;;5050174;28;20044;-75
2023/01/01 13:29:19;;;;;;;62.55;29.02;;;;;;;;;;5048492;28;20428;-76
2023/01/01 13:31:45;;;;;;;14.18;9.23;;;;;;;;;;5045525;28;20025;-76
2023/01/01 13:34:30;;;;;;;12.60;8.85;;;;;;;;;;5045251;28;20040;-76
2023/01/01 13:37:17;;;;;;;10.25;7.60;;;;;;;;;;5050570;28;20407;-75
2023/01/01 13:39:55;;;;;;;6.43;3.83;;;;;;;;;;5047579;28;20025;-76
2023/01/01 13:42:40;;;;;;;5.55;3.70;;;;;;;;;;5043482;28;20063;-76
2023/01/01 13:45:13;;;;;;;4.88;4.40;;;;;;;;;;5052002;28;20645;-79
2023/01/01 13:48:08;;;;;;;5.80;3.90;;;;;;;;;;5042410;28;20089;-76
2023/01/01 13:50:53;;;;;;;8.18;5.40;;;;;;;;;;5033191;28;20132;-75
2023/01/01 13:53:38;;;;;;;6.30;4.30;;;;;;;;;;5046847;28;20022;-76
2023/01/01 13:56:15;;;;;;;4.82;3.78;;;;;;;;;;5042095;28;20500;-74
2023/01/01 13:58:45;;;;;;;7.55;5.03;;;;;;;;;;5047885;28;20060;-75
2023/01/01 14:01:30;;;;;;;8.25;5.55;;;;;;;;;;5045483;28;20033;-75
2023/01/01 14:03:57;;;;;;;7.85;6.35;;;;;;;;;;5039710;28;20037;-76
2023/01/01 14:06:38;;;;;;;6.70;5.28;;;;;;;;;;5043099;28;20040;-76
2023/01/01 14:09:13;;;;;;;16.73;12.13;;;;;;;;;;5050271;28;20021;-76
2023/01/01 14:11:39;;;;;;;12.80;7.70;;;;;;;;;;5051129;28;20049;-76
2023/01/01 14:14:37;;;;;;;11.70;8.05;;;;;;;;;;5041079;28;20056;-76
2023/01/01 14:17:06;;;;;;;40.72;25.92;;;;;;;;;;5021663;28;20051;-76
2023/01/01 14:19:32;;;;;;;31.17;18.30;;;;;;;;;;5060391;28;20030;-76
2023/01/01 14:21:59;;;;;;;13.30;10.00;;;;;;;;;;5045527;28;20458;-75
2023/01/01 14:24:25;;;;;;;13.63;9.77;;;;;;;;;;5048467;28;20485;-75
2023/01/01 14:26:53;;;;;;;14.20;10.57;;;;;;;;;;5047696;28;20378;-76
2023/01/01 14:29:27;;;;;;;28.60;23.02;;;;;;;;;;5048197;28;20053;-77
2023/01/01 14:31:53;;;;;;;19.13;16.42;;;;;;;;;;5046514;28;20068;-76
2023/01/01 14:34:23;;;;;;;6.82;5.15;;;;;;;;;;5047256;28;20033;-76
2023/01/01 14:36:56;;;;;;;6.82;5.55;;;;;;;;;;5045264;28;20049;-76
2023/01/01 14:39:30;;;;;;;24.23;17.20;;;;;;;;;;5046033;28;20027;-76
2023/01/01 14:42:05;;;;;;;28.15;21.38;;;;;;;;;;5045520;28;20037;-76
2023/01/01 14:44:52;;;;;;;36.80;29.60;;;;;;;;;;5041903;28;20033;-76
2023/01/01 14:47:32;;;;;;;31.02;22.90;;;;;;;;;;5063243;28;20085;-76
2023/01/01 14:50:04;;;;;;;17.00;15.00;;;;;;;;;;5047602;28;20029;-76
2023/01/01 14:52:30;;;;;;;16.50;14.07;;;;;;;;;;5043768;28;20381;-76
2023/01/01 14:54:57;;;;;;;15.00;13.60;;;;;;;;;;5062176;28;20915;-76
2023/01/01 14:57:25;;;;;;;6.57;5.90;;;;;;;;;;5047894;28;20029;-76
2023/01/01 14:59:55;;;;;;;11.88;9.18;;;;;;;;;;5042192;28;20073;-76
2023/01/01 15:02:21;;;;;;;9.52;7.75;;;;;;;;;;5043451;28;20112;-75